createdAt,value
2023-03-04T00:03:11.234Z,99204.84
2023-03-04T00:08:13.746Z,99388.03
2023-03-04T00:13:16.916Z,99208.44
2023-03-04T00:18:21.219Z,99411.66
2023-03-04T00:23:23.412Z,99364.50
2023-03-04T00:28:25.629Z,99328.94
2023-03-04T00:33:28.214Z,99213.16
2023-03-04T00:38:31.282Z,99382.53
2023-03-04T00:43:33.551Z,99218.50
2023-03-04T00:48:35.743Z,99414.72
2023-03-04T00:53:38.019Z,99310.47
2023-03-04T00:58:40.556Z,99278.88
2023-03-04T01:03:42.691Z,99255.44
2023-03-04T01:08:45.979Z,99384.66
2023-03-04T01:13:49.345Z,99175.13
2023-03-04T01:18:51.564Z,99209.28
2023-03-04T01:23:53.864Z,99401.38
2023-03-04T01:28:56.131Z,99349.91
2023-03-04T01:33:58.408Z,99262.78
2023-03-04T01:39:00.658Z,99209.41
2023-03-04T01:44:03.493Z,99282.41
2023-03-04T01:49:09.519Z,99216.44
2023-03-04T01:54:11.875Z,99224.56
2023-03-04T01:59:19.742Z,99131.63
2023-03-04T02:04:27.565Z,99252.72
2023-03-04T02:09:31.824Z,99302.22
2023-03-04T02:14:34.484Z,99210.72
2023-03-04T02:19:50.317Z,99109.22
2023-03-04T02:25:16.043Z,99173.91
2023-03-04T02:30:23.953Z,99308.91
2023-03-04T02:35:26.552Z,99344.22
2023-03-04T02:40:32.183Z,99263.94
2023-03-04T02:45:40.979Z,99223.25
2023-03-04T02:50:49.375Z,99162.31
2023-03-04T02:55:51.872Z,99266.94
2023-03-04T03:00:58.371Z,99130.34
2023-03-04T03:06:02.881Z,99292.59
2023-03-04T03:11:06.829Z,99112.63
2023-03-04T03:16:10.118Z,99201.34
2023-03-04T03:21:12.483Z,99296.59
2023-03-04T03:26:15.103Z,99324.75
2023-03-04T03:31:17.497Z,99116.09
2023-03-04T03:36:22.279Z,99190.13
2023-03-04T03:41:24.559Z,99249.13
2023-03-04T03:46:27.436Z,99149.34
2023-03-04T03:51:29.681Z,99341.75
2023-03-04T03:56:31.922Z,99310.47
2023-03-04T04:01:34.440Z,99235.38
2023-03-04T04:06:36.641Z,99215.06
2023-03-04T04:11:38.902Z,99167.19
2023-03-04T04:16:41.326Z,99215.47
2023-03-04T04:21:43.574Z,99119.31
2023-03-04T04:26:45.996Z,99249.53
2023-03-04T04:31:48.249Z,99166.16
2023-03-04T04:36:50.607Z,99120.81
2023-03-04T04:41:52.873Z,99320.41
2023-03-04T04:46:55.134Z,99374.94
2023-03-04T04:51:57.280Z,99085.31
2023-03-04T04:56:59.468Z,99245.66
2023-03-04T05:02:01.868Z,99115.22
2023-03-04T05:07:04.370Z,99351.72
2023-03-04T05:12:06.772Z,99159.91
2023-03-04T05:17:08.981Z,99323.38
2023-03-04T05:22:11.126Z,99270.25
2023-03-04T05:27:13.426Z,99325.47
2023-03-04T05:32:15.770Z,99344.47
2023-03-04T05:37:18.164Z,99217.91
2023-03-04T05:42:20.502Z,99169.97
2023-03-04T05:47:23.147Z,99124.22
2023-03-04T05:52:25.354Z,99344.50
2023-03-04T05:57:27.560Z,99288.75
2023-03-04T06:02:29.774Z,99057.66
2023-03-04T06:07:32.406Z,99332.66
2023-03-04T06:12:34.701Z,99108.59
2023-03-04T06:17:39.952Z,99279.59
2023-03-04T06:22:43.711Z,99372.44
2023-03-04T06:27:45.940Z,99395.81
2023-03-04T06:32:48.286Z,99319.75
2023-03-04T06:37:50.615Z,99301.25
2023-03-04T06:42:52.877Z,99397.66
2023-03-04T06:47:55.337Z,99364.88
2023-03-04T06:52:58.205Z,99481.63
2023-03-04T06:58:00.453Z,99477.22
2023-03-04T07:03:02.741Z,99499.16
2023-03-04T07:08:07.136Z,99436.63
2023-03-04T07:13:09.388Z,99375.38
2023-03-04T07:18:11.502Z,99467.78
2023-03-04T07:23:13.791Z,99523.34
2023-03-04T07:28:16.188Z,99522.94
2023-03-04T07:33:18.467Z,99544.06
2023-03-04T07:38:20.615Z,99569.31
2023-03-04T07:43:22.890Z,99579.16
2023-03-04T07:48:25.088Z,99546.44
2023-03-04T07:53:27.262Z,99579.38
2023-03-04T07:58:29.537Z,99584.81
2023-03-04T08:03:31.828Z,99520.28
2023-03-04T08:08:34.118Z,99598.97
2023-03-04T08:13:37.300Z,99496.69
2023-03-04T08:18:40.640Z,99467.16
2023-03-04T08:23:43.453Z,99570.88
2023-03-04T08:28:46.618Z,99530.34
2023-03-04T08:33:49.412Z,99434.31
2023-03-04T08:38:52.214Z,99523.25
2023-03-04T08:43:54.324Z,99477.31
2023-03-04T08:48:56.612Z,99541.72
2023-03-04T08:53:59.000Z,99490.19
2023-03-04T08:59:01.299Z,99623.59
2023-03-04T09:04:03.480Z,99631.09
2023-03-04T09:09:05.755Z,99495.56
2023-03-04T09:14:07.867Z,99491.59
2023-03-04T09:19:10.023Z,99650.22
2023-03-04T09:24:12.309Z,99582.16
2023-03-04T09:29:14.414Z,99597.72
2023-03-04T09:34:16.705Z,99475.66
2023-03-04T09:39:18.963Z,99581.38
2023-03-04T09:44:36.827Z,99536.84
2023-03-04T09:49:48.692Z,99604.16
2023-03-04T09:55:18.374Z,99542.03
2023-03-04T10:00:36.546Z,99642.78
2023-03-04T10:05:51.009Z,99485.38
2023-03-04T10:10:57.510Z,99552.53
2023-03-04T10:16:02.386Z,99600.59
2023-03-04T10:21:35.453Z,99572.91
2023-03-04T10:26:39.043Z,99418.72
2023-03-04T10:31:43.626Z,99604.91
2023-03-04T10:36:54.814Z,99614.78
2023-03-04T10:42:15.276Z,99566.28
2023-03-04T10:47:17.976Z,99627.56
2023-03-04T10:52:30.760Z,99542.19
2023-03-04T10:57:39.788Z,99640.75
2023-03-04T11:02:41.894Z,99640.75
2023-03-04T11:07:56.362Z,99537.53
2023-03-04T11:13:00.363Z,99648.00
2023-03-04T11:18:13.294Z,99572.28
2023-03-04T11:23:23.631Z,99708.50
2023-03-04T11:29:01.036Z,99634.31
2023-03-04T11:34:27.465Z,99455.78
2023-03-04T11:39:46.693Z,99627.63
2023-03-04T11:44:49.220Z,99580.78
2023-03-04T11:50:16.529Z,99448.72
2023-03-04T11:55:58.709Z,99552.66
2023-03-04T12:01:18.577Z,99637.94
2023-03-04T12:06:29.877Z,99551.78
2023-03-04T12:12:07.378Z,99659.28
2023-03-04T12:17:35.200Z,99645.78
2023-03-04T12:23:11.133Z,99515.75
2023-03-04T12:28:40.442Z,99434.28
2023-03-04T12:34:23.096Z,99588.63
2023-03-04T12:39:42.727Z,99548.88
2023-03-04T12:45:17.685Z,99479.47
2023-03-04T12:50:48.425Z,99548.38
2023-03-04T12:55:51.452Z,99558.88
2023-03-04T13:00:59.986Z,99579.47
2023-03-04T13:06:11.690Z,99490.78
2023-03-04T13:11:30.094Z,99509.25
2023-03-04T13:16:40.917Z,99464.84
2023-03-04T13:21:49.270Z,99544.69
2023-03-04T13:26:51.502Z,99481.78
2023-03-04T13:32:39.102Z,99609.25
2023-03-04T13:37:59.450Z,99588.34
2023-03-04T13:43:44.581Z,99610.78
2023-03-04T13:48:52.967Z,99496.00
2023-03-04T13:54:02.938Z,99571.88
2023-03-04T13:59:08.200Z,99514.16
2023-03-04T14:04:35.856Z,99615.13
2023-03-04T14:09:38.121Z,99612.34
2023-03-04T14:14:59.900Z,99513.09
2023-03-04T14:20:03.741Z,99489.72
2023-03-04T14:25:13.294Z,99587.03
2023-03-04T14:30:41.556Z,99646.63
2023-03-04T14:35:55.850Z,99492.59
2023-03-04T14:41:08.520Z,99559.41
2023-03-04T14:46:15.946Z,99580.97
2023-03-04T14:51:42.408Z,99558.47
2023-03-04T14:56:45.352Z,99539.81
2023-03-04T15:01:47.465Z,99615.97
2023-03-04T15:06:53.066Z,99499.72
2023-03-04T15:12:07.572Z,99493.38
2023-03-04T15:17:38.582Z,99585.50
2023-03-04T15:22:40.747Z,99591.97
2023-03-04T15:27:48.526Z,99487.13
2023-03-04T15:32:51.240Z,99499.03
2023-03-04T15:37:55.050Z,99479.03
2023-03-04T15:42:59.834Z,99478.78
2023-03-04T15:48:07.777Z,99450.94
2023-03-04T15:53:34.840Z,99518.63
2023-03-04T15:58:37.143Z,99457.34
2023-03-04T16:03:41.530Z,99451.44
2023-03-04T16:08:44.212Z,99431.50
2023-03-04T16:13:46.667Z,99424.50
2023-03-04T16:18:48.975Z,99424.69
2023-03-04T16:23:52.814Z,99422.03
2023-03-04T16:28:55.268Z,99474.31
2023-03-04T16:33:57.529Z,99465.41
2023-03-04T16:39:20.385Z,99393.97
2023-03-04T16:44:22.622Z,99427.84
2023-03-04T16:49:24.766Z,99391.44
2023-03-04T16:54:31.466Z,99379.16
2023-03-04T16:59:33.754Z,99326.78
2023-03-04T17:04:35.977Z,99404.22
2023-03-04T17:09:38.170Z,99302.97
2023-03-04T17:14:40.832Z,99351.94
2023-03-04T17:19:42.986Z,99406.56
2023-03-04T17:24:45.098Z,99328.59
2023-03-04T17:29:48.953Z,99363.63
2023-03-04T17:34:51.209Z,99412.69
2023-03-04T17:39:54.031Z,99361.31
2023-03-04T17:44:56.173Z,99324.69
2023-03-04T17:49:58.756Z,99340.00
2023-03-04T17:55:00.928Z,99339.81
2023-03-04T18:05:26.541Z,99356.34
2023-03-04T18:10:28.928Z,99309.66
2023-03-04T18:15:31.241Z,99308.91
2023-03-04T18:20:33.892Z,99337.06
2023-03-04T18:25:36.368Z,99377.19
2023-03-04T18:30:38.909Z,99387.41
2023-03-04T18:35:41.291Z,99330.44
2023-03-04T18:40:44.390Z,99300.25
2023-03-04T18:45:47.611Z,99358.34
2023-03-04T18:50:51.487Z,99276.28
2023-03-04T18:56:01.536Z,99322.06
2023-03-04T19:01:07.280Z,99356.97
2023-03-04T19:06:10.094Z,99340.91
2023-03-04T19:11:12.353Z,99387.31
2023-03-04T19:16:15.651Z,99301.88
2023-03-04T19:21:19.150Z,99412.66
2023-03-04T19:26:21.441Z,99355.28
2023-03-04T19:31:23.586Z,99313.69
2023-03-04T19:36:26.630Z,99409.09
2023-03-04T19:41:30.083Z,99353.06
2023-03-04T19:46:32.403Z,99393.59
2023-03-04T19:51:34.694Z,99370.22
2023-03-04T19:56:37.017Z,99382.50
2023-03-04T20:01:41.808Z,99365.88
2023-03-04T20:06:49.766Z,99354.97
2023-03-04T20:11:58.227Z,99367.50
2023-03-04T20:17:04.046Z,99281.72
2023-03-04T20:22:07.102Z,99345.53
2023-03-04T20:27:10.245Z,99416.47
2023-03-04T20:32:12.620Z,99340.63
2023-03-04T20:37:14.929Z,99396.47
2023-03-04T20:42:17.272Z,99359.94
2023-03-04T20:47:19.411Z,99384.31
2023-03-04T20:52:21.654Z,99341.09
2023-03-04T20:57:24.096Z,99358.84
2023-03-04T21:02:26.399Z,99350.50
2023-03-04T21:07:28.821Z,99305.41
2023-03-04T21:12:31.084Z,99294.88
2023-03-04T21:17:33.206Z,99280.75
2023-03-04T21:22:35.430Z,99276.66
2023-03-04T21:27:42.648Z,99240.63
2023-03-04T21:32:44.903Z,99197.34
2023-03-04T21:37:47.319Z,99214.03
2023-03-04T21:42:49.533Z,99244.44
2023-03-04T21:47:51.779Z,99193.81
2023-03-04T21:52:54.021Z,99182.38
2023-03-04T21:57:56.122Z,99153.41
2023-03-04T22:02:58.244Z,99170.69
2023-03-04T22:08:00.345Z,99309.16
2023-03-04T22:13:02.439Z,99247.63
2023-03-04T22:18:06.987Z,99094.31
2023-03-04T22:23:09.734Z,99149.13
2023-03-04T22:28:12.099Z,99120.69
2023-03-04T22:33:14.287Z,99174.16
2023-03-04T22:38:16.600Z,99245.88
2023-03-04T22:43:19.014Z,99104.66
2023-03-04T22:48:21.376Z,99135.72
2023-03-04T22:53:25.870Z,99163.25
2023-03-04T22:58:28.483Z,99131.91
2023-03-04T23:03:31.396Z,99112.44
2023-03-04T23:08:38.956Z,99098.97
2023-03-04T23:13:42.256Z,99203.84
2023-03-04T23:18:47.264Z,99081.97
2023-03-04T23:23:50.392Z,99139.25
2023-03-04T23:28:55.811Z,99201.13
2023-03-04T23:33:59.086Z,99153.19
2023-03-04T23:39:02.178Z,99065.75
2023-03-04T23:44:05.880Z,99158.13
2023-03-04T23:49:09.738Z,99145.31
2023-03-04T23:54:16.008Z,99046.16
2023-03-04T23:59:18.318Z,99071.03
